Share

Current weather conditions updated 5 minutes ago

Overcast
Overcast
51.6 °F
Feels Like 51.6 °F
N
1.0
Wind Variable Wind from SSW
Gusts 2.0 mph
Sunrise 6:59 AM
Sunset 8:53 PM
Moon Waning Gibbous

Today is forecast to be Warmer than yesterday.

Pressure 29.87 in
Visibility 7.0 miles
Clouds Overcast 400 ft
Dew Point 38 °F
Humidity 60%
Rainfall 0.00 in
Snow Depth Not available.
UV 2 out of 16
Pollen 7.80 out of 12
Air Quality Not available.
Flu Activity Sporadic
METAR KLNL 211515Z AUTO 25004KT 7SM OVC004 11/09 A2987 RMK AO2 T01050085

More Conditions Fewer Conditions

Pressure 29.87 in
Visibility 7.0 miles
Clouds Overcast 400 ft
Dew Point 38 °F
Humidity 60%
Rainfall 0.00 in
Snow Depth Not available.
UV 2 out of 16
Pollen 7.80 out of 12
Air Quality Not available.
Flu Activity Sporadic
METAR KLNL 211515Z AUTO 25004KT 7SM OVC004 11/09 A2987 RMK AO2 T01050085

More Conditions Fewer Conditions

10-Day Weather Forecast

Almanac

Astronomy

Apr. 21, 2014 Rise Set
Actual Time 6:59 AM EDT 8:53 PM EDT
Civil Twilight 6:27 AM EDT 9:25 PM EDT
Nautical Twilight 5:47 AM EDT 10:05 PM EDT
Astronomical Twilight 5:04 AM EDT 10:49 PM EDT
Moon 2:28 AM EDT 12:21 PM EDT
Length of Visible Light 14h 58m
Length of Day
13h 53m
Tomorrow will be 3m 5s longer.
Waning Gibbous, 58% of the Moon is Illuminated
Today
Waning Gibbous
Apr 22
Last Quarter
Apr 29
New
May 6
First Quarter
May 14
Full

Today's Extremes

State Highs State Lows

Community

  • Bright Eyes
    Bright Eyes
  • Snowy Robin
    Snowy Robin
  • Spring Crocus
    Spring Crocus
  • Sun Pillar and Geese
    Sun Pillar and Geese
  • Showers on the Way
    Showers on the Way

WunderPhotos

Upload Photos

1,703,665 photos uploaded!

Nearby

Snow Depth

Station Depth Elevation
No new snow has been reported.

Coastal Water Temperatures

Place Temperature
No Stations Reporting

Earthquake Activity

City Distance Mag. Time & Date
No recent earthquake activity has been reported nearby.
Minimum magnitude displayed is 2.5.

Nearby Weather Stations

Station Location Temp. Windchill Dew Point Humidity Wind Precip. Elev Updated Type
Mountain View Lodges, Silver City, MI / , Ontonagon, MI 51.6 °F - 38 °F 60% SSW  at  1.0 mph 0.00 in / hr 587 ft 11:30 AM EDT Normal
RAWS WAKEFIELD MI, Wakefield, MI 51 °F - 48 °F 89% NW  at  3 mph 0.00 in / hr 1200 ft 10:01 AM CDT MADIS
RAWS KENTON MI, Nisula, MI 38 °F 38 °F 31 °F 76% East  at  1 mph 0.00 in / hr 1262 ft 8:56 AM EDT MADIS

Show More Stations Show Fewer Stations

What do you think?

We're not finished. Please let us know what you like, what you don't like, and what you are still missing.